createdAt,value
2022-09-06T00:01:38.980Z,100.00
2022-09-06T00:04:06.131Z,100.00
2022-09-06T00:06:36.291Z,100.00
2022-09-06T00:09:03.781Z,100.00
2022-09-06T00:11:31.114Z,100.00
2022-09-06T00:13:58.138Z,100.00
2022-09-06T00:16:30.421Z,100.00
2022-09-06T00:18:57.992Z,100.00
2022-09-06T00:21:28.230Z,100.00
2022-09-06T00:23:57.482Z,100.00
2022-09-06T00:26:24.991Z,100.00
2022-09-06T00:28:52.694Z,100.00
2022-09-06T00:31:23.054Z,100.00
2022-09-06T00:33:51.366Z,100.00
2022-09-06T00:36:20.260Z,100.00
2022-09-06T00:38:48.878Z,100.00
2022-09-06T00:41:21.833Z,100.00
2022-09-06T00:43:56.201Z,100.00
2022-09-06T00:46:31.540Z,100.00
2022-09-06T00:49:07.139Z,100.00
2022-09-06T00:51:37.891Z,100.00
2022-09-06T00:54:07.411Z,100.00
2022-09-06T00:56:40.449Z,100.00
2022-09-06T00:59:08.254Z,100.00
2022-09-06T01:01:39.268Z,100.00
2022-09-06T01:04:11.760Z,100.00
2022-09-06T01:06:59.409Z,100.00
2022-09-06T01:09:57.720Z,100.00
2022-09-06T01:12:33.868Z,100.00
2022-09-06T01:15:51.124Z,100.00
2022-09-06T01:18:27.734Z,100.00
2022-09-06T01:21:29.905Z,100.00
2022-09-06T01:24:28.633Z,100.00
2022-09-06T01:27:18.208Z,100.00
2022-09-06T01:30:00.462Z,100.00
2022-09-06T01:32:56.617Z,100.00
2022-09-06T01:35:36.032Z,100.00
2022-09-06T01:38:04.597Z,100.00
2022-09-06T01:40:38.255Z,100.00
2022-09-06T01:43:11.206Z,100.00
2022-09-06T01:46:03.089Z,100.00
2022-09-06T01:48:47.930Z,100.00
2022-09-06T01:51:30.491Z,100.00
2022-09-06T01:54:08.970Z,100.00
2022-09-06T01:57:12.556Z,100.00
2022-09-06T01:59:43.686Z,100.00
2022-09-06T02:02:16.474Z,100.00
2022-09-06T02:05:01.784Z,100.00
2022-09-06T02:07:50.402Z,100.00
2022-09-06T02:10:33.017Z,100.00
2022-09-06T02:13:06.496Z,100.00
2022-09-06T02:15:38.931Z,100.00
2022-09-06T02:18:11.272Z,100.00
2022-09-06T02:20:45.304Z,100.00
2022-09-06T02:23:16.286Z,100.00
2022-09-06T02:25:51.004Z,100.00
2022-09-06T02:28:19.044Z,100.00
2022-09-06T02:30:53.084Z,100.00
2022-09-06T02:33:24.669Z,100.00
2022-09-06T02:35:54.716Z,100.00
2022-09-06T02:38:28.908Z,100.00
2022-09-06T02:40:58.069Z,100.00
2022-09-06T02:43:42.162Z,100.00
2022-09-06T02:46:11.810Z,100.00
2022-09-06T02:48:38.894Z,100.00
2022-09-06T02:51:08.461Z,100.00
2022-09-06T02:53:36.032Z,100.00
2022-09-06T02:56:05.913Z,100.00
2022-09-06T02:58:39.618Z,100.00
2022-09-06T03:01:16.809Z,100.00
2022-09-06T03:03:46.174Z,100.00
2022-09-06T03:06:17.042Z,100.00
2022-09-06T03:08:47.180Z,100.00
2022-09-06T03:14:00.298Z,100.00
2022-09-06T03:16:34.652Z,100.00
2022-09-06T03:19:02.109Z,100.00
2022-09-06T03:21:31.883Z,100.00
2022-09-06T03:23:58.926Z,100.00
2022-09-06T03:26:29.548Z,100.00
2022-09-06T03:28:57.082Z,100.00
2022-09-06T03:31:26.843Z,100.00
2022-09-06T03:33:56.935Z,100.00
2022-09-06T03:36:26.253Z,100.00
2022-09-06T03:38:53.693Z,100.00
2022-09-06T03:41:20.802Z,100.00
2022-09-06T03:43:47.841Z,100.00
2022-09-06T03:46:14.821Z,100.00
2022-09-06T03:48:41.972Z,100.00
2022-09-06T03:51:08.958Z,100.00
2022-09-06T03:53:36.009Z,100.00
2022-09-06T03:56:03.153Z,100.00
2022-09-06T03:58:31.647Z,100.00
2022-09-06T04:01:04.807Z,100.00
2022-09-06T04:03:32.806Z,100.00
2022-09-06T04:06:01.870Z,100.00
2022-09-06T04:08:29.462Z,100.00
2022-09-06T04:10:58.353Z,100.00
2022-09-06T04:13:27.010Z,100.00
2022-09-06T04:15:56.010Z,100.00
2022-09-06T04:18:24.411Z,100.00
2022-09-06T04:20:54.130Z,100.00
2022-09-06T04:23:22.146Z,100.00
2022-09-06T04:25:51.336Z,100.00
2022-09-06T04:28:18.705Z,100.00
2022-09-06T04:30:51.855Z,100.00
2022-09-06T04:33:18.903Z,100.00
2022-09-06T04:35:49.957Z,100.00
2022-09-06T04:38:16.898Z,100.00
2022-09-06T04:40:43.738Z,100.00
2022-09-06T04:43:10.872Z,100.00
2022-09-06T04:45:39.302Z,100.00
2022-09-06T04:48:06.383Z,100.00
2022-09-06T04:50:33.881Z,100.00
2022-09-06T04:53:07.447Z,100.00
2022-09-06T04:55:40.639Z,100.00
2022-09-06T04:58:07.601Z,100.00
2022-09-06T05:00:38.451Z,100.00
2022-09-06T05:03:05.906Z,100.00
2022-09-06T05:05:32.810Z,100.00
2022-09-06T05:07:59.793Z,100.00
2022-09-06T05:10:26.952Z,100.00
2022-09-06T05:12:54.383Z,100.00
2022-09-06T05:15:22.574Z,100.00
2022-09-06T05:17:50.203Z,100.00
2022-09-06T05:20:17.934Z,100.00
2022-09-06T05:22:53.716Z,100.00
2022-09-06T05:25:21.018Z,100.00
2022-09-06T05:27:48.370Z,100.00
2022-09-06T05:30:17.544Z,100.00
2022-09-06T05:32:44.766Z,100.00
2022-09-06T05:35:13.049Z,100.00
2022-09-06T05:37:39.951Z,100.00
2022-09-06T05:40:12.061Z,100.00
2022-09-06T05:42:40.478Z,100.00
2022-09-06T05:45:08.119Z,100.00
2022-09-06T05:47:35.127Z,100.00
2022-09-06T05:50:02.802Z,100.00
2022-09-06T05:52:30.019Z,100.00
2022-09-06T05:54:56.976Z,100.00
2022-09-06T05:57:24.474Z,100.00
2022-09-06T05:59:53.051Z,100.00
2022-09-06T06:02:21.127Z,100.00
2022-09-06T06:04:48.334Z,100.00
2022-09-06T06:07:15.477Z,100.00
2022-09-06T06:09:44.641Z,100.00
2022-09-06T06:12:14.436Z,100.00
2022-09-06T06:14:41.651Z,100.00
2022-09-06T06:17:12.077Z,100.00
2022-09-06T06:19:39.734Z,100.00
2022-09-06T06:22:06.572Z,100.00
2022-09-06T06:24:34.101Z,100.00
2022-09-06T06:27:03.581Z,100.00
2022-09-06T06:29:30.581Z,100.00
2022-09-06T06:31:57.565Z,100.00
2022-09-06T06:34:24.765Z,100.00
2022-09-06T06:36:51.885Z,100.00
2022-09-06T06:39:18.875Z,100.00
2022-09-06T06:41:47.445Z,100.00
2022-09-06T06:44:32.549Z,100.00
2022-09-06T06:47:01.485Z,100.00
2022-09-06T06:49:29.136Z,100.00
2022-09-06T06:51:58.198Z,100.00
2022-09-06T06:54:25.135Z,100.00
2022-09-06T06:56:52.065Z,100.00
2022-09-06T06:59:19.664Z,100.00
2022-09-06T07:01:46.876Z,100.00
2022-09-06T07:04:14.863Z,100.00
2022-09-06T07:12:27.483Z,100.00
2022-09-06T07:14:55.073Z,100.00
2022-09-06T07:17:22.011Z,100.00
2022-09-06T07:22:41.068Z,100.00
2022-09-06T07:25:08.918Z,100.00
2022-09-06T07:27:47.640Z,100.00
2022-09-06T07:30:15.510Z,100.00
2022-09-06T07:32:42.309Z,100.00
2022-09-06T07:35:09.120Z,100.00
2022-09-06T07:37:36.536Z,100.00
2022-09-06T07:40:03.960Z,100.00
2022-09-06T07:42:36.063Z,100.00
2022-09-06T07:45:04.246Z,100.00
2022-09-06T07:53:10.908Z,100.00
2022-09-06T07:55:46.090Z,100.00
2022-09-06T07:58:13.772Z,100.00
2022-09-06T08:00:40.690Z,100.00
2022-09-06T08:03:09.491Z,100.00
2022-09-06T08:11:12.588Z,100.00
2022-09-06T08:13:39.361Z,100.00
2022-09-06T08:16:07.943Z,100.00
2022-09-06T08:18:35.498Z,100.00
2022-09-06T08:21:13.154Z,100.00
2022-09-06T08:23:47.653Z,100.00
2022-09-06T08:26:15.540Z,100.00
2022-09-06T08:28:42.343Z,100.00
2022-09-06T08:31:13.340Z,100.00
2022-09-06T08:33:40.870Z,100.00
2022-09-06T08:36:08.027Z,100.00
2022-09-06T08:38:35.026Z,100.00
2022-09-06T08:41:07.614Z,100.00
2022-09-06T08:43:34.894Z,100.00
2022-09-06T08:46:02.846Z,100.00
2022-09-06T08:48:32.054Z,100.00
2022-09-06T08:51:13.428Z,100.00
2022-09-06T08:53:43.945Z,100.00
2022-09-06T08:56:17.056Z,100.00
2022-09-06T08:58:52.980Z,100.00
2022-09-06T09:01:24.791Z,100.00
2022-09-06T09:03:54.022Z,100.00
2022-09-06T09:06:22.647Z,100.00
2022-09-06T09:08:49.893Z,100.00
2022-09-06T09:11:18.135Z,100.00
2022-09-06T09:14:00.232Z,100.00
2022-09-06T09:16:27.324Z,100.00
2022-09-06T09:18:59.324Z,98.56
2022-09-06T09:21:30.467Z,100.00
2022-09-06T09:23:59.721Z,99.44
2022-09-06T09:26:32.035Z,96.66
2022-09-06T09:29:07.584Z,98.30
2022-09-06T09:31:38.849Z,90.67
2022-09-06T09:34:09.725Z,95.24
2022-09-06T09:36:38.268Z,95.47
2022-09-06T09:39:11.663Z,91.32
2022-09-06T09:41:40.612Z,83.56
2022-09-06T09:44:09.898Z,80.51
2022-09-06T09:46:39.111Z,73.02
2022-09-06T09:49:10.855Z,73.80
2022-09-06T09:51:39.093Z,77.00
2022-09-06T09:54:07.651Z,80.37
2022-09-06T09:56:40.260Z,79.74
2022-09-06T09:59:19.227Z,78.18
2022-09-06T10:01:46.356Z,79.23
2022-09-06T10:07:13.766Z,71.44
2022-09-06T10:09:42.771Z,70.37
2022-09-06T10:12:15.351Z,70.23
2022-09-06T10:14:43.960Z,69.29
2022-09-06T10:17:21.417Z,68.89
2022-09-06T10:19:49.345Z,65.05
2022-09-06T10:22:26.892Z,62.16
2022-09-06T10:25:04.512Z,64.07
2022-09-06T10:27:32.836Z,63.78
2022-09-06T10:30:04.890Z,63.77
2022-09-06T10:32:50.924Z,49.92
2022-09-06T10:35:20.883Z,47.88
2022-09-06T10:37:53.813Z,45.37
2022-09-06T10:40:34.202Z,47.38
2022-09-06T10:43:03.043Z,45.34
2022-09-06T10:45:48.558Z,46.32
2022-09-06T10:48:29.266Z,45.89
2022-09-06T10:50:56.093Z,46.55
2022-09-06T10:53:36.993Z,45.71
2022-09-06T10:56:37.482Z,44.10
2022-09-06T11:02:22.106Z,49.96
2022-09-06T11:07:37.927Z,53.00
2022-09-06T11:10:10.459Z,54.59
2022-09-06T11:12:50.288Z,55.21
2022-09-06T11:15:21.438Z,54.12
2022-09-06T11:17:56.638Z,52.61
2022-09-06T11:20:36.187Z,53.46
2022-09-06T11:23:23.946Z,56.97
2022-09-06T11:26:07.933Z,56.27
2022-09-06T11:28:39.831Z,55.97
2022-09-06T11:34:26.533Z,56.08
2022-09-06T11:37:03.985Z,54.07
2022-09-06T11:42:39.638Z,55.96
2022-09-06T11:45:21.584Z,55.60
2022-09-06T11:47:51.736Z,58.13
2022-09-06T11:50:23.586Z,55.86
2022-09-06T11:53:06.252Z,57.29
2022-09-06T11:55:40.746Z,61.21
2022-09-06T11:58:17.283Z,58.58
2022-09-06T12:00:46.340Z,59.71
2022-09-06T12:06:21.171Z,58.02
2022-09-06T12:08:49.576Z,60.61
2022-09-06T12:11:35.247Z,60.93
2022-09-06T12:14:06.819Z,57.88
2022-09-06T12:16:59.907Z,60.51
2022-09-06T12:19:45.684Z,55.64
2022-09-06T12:22:41.655Z,52.08
2022-09-06T12:25:17.784Z,49.79
2022-09-06T12:27:58.307Z,51.38
2022-09-06T12:30:47.440Z,50.56
2022-09-06T12:33:24.312Z,47.78
2022-09-06T12:35:58.891Z,46.40
2022-09-06T12:38:26.654Z,45.92
2022-09-06T12:40:58.622Z,42.81
2022-09-06T12:43:26.596Z,40.31
2022-09-06T12:45:53.621Z,39.70
2022-09-06T12:48:28.338Z,40.40
2022-09-06T12:51:09.003Z,39.50
2022-09-06T12:53:38.200Z,39.65
2022-09-06T12:56:11.623Z,39.32
2022-09-06T12:58:41.129Z,37.16
2022-09-06T13:01:15.711Z,35.83
2022-09-06T13:04:02.491Z,33.09
2022-09-06T13:06:32.835Z,33.03
2022-09-06T13:09:00.829Z,32.65
2022-09-06T13:11:34.069Z,32.69
2022-09-06T13:14:02.253Z,32.96
2022-09-06T13:16:39.000Z,32.89
2022-09-06T13:19:14.970Z,33.09
2022-09-06T13:21:45.813Z,32.02
2022-09-06T13:24:20.290Z,32.49
2022-09-06T13:26:47.171Z,31.96
2022-09-06T13:29:18.300Z,31.84
2022-09-06T13:31:46.437Z,30.93
2022-09-06T13:34:27.959Z,31.36
2022-09-06T13:37:02.670Z,32.49
2022-09-06T13:39:33.281Z,31.46
2022-09-06T13:42:22.894Z,30.58
2022-09-06T13:44:52.997Z,30.13
2022-09-06T13:47:19.726Z,27.27
2022-09-06T13:49:46.754Z,27.88
2022-09-06T13:52:14.067Z,28.75
2022-09-06T13:54:45.094Z,29.83
2022-09-06T13:57:11.804Z,31.27
2022-09-06T13:59:38.798Z,31.14
2022-09-06T14:02:07.236Z,29.93
2022-09-06T14:04:35.237Z,30.04
2022-09-06T14:07:03.221Z,28.31
2022-09-06T14:09:30.024Z,28.62
2022-09-06T14:11:56.869Z,28.41
2022-09-06T14:14:24.330Z,27.70
2022-09-06T14:16:51.088Z,28.03
2022-09-06T14:19:17.828Z,27.56
2022-09-06T14:21:46.969Z,26.26
2022-09-06T14:24:13.952Z,27.08
2022-09-06T14:26:42.317Z,26.43
2022-09-06T14:29:09.181Z,27.73
2022-09-06T14:31:36.090Z,27.47
2022-09-06T14:34:05.252Z,25.31
2022-09-06T14:36:32.567Z,25.83
2022-09-06T14:39:00.120Z,25.68
2022-09-06T14:41:26.923Z,26.52
2022-09-06T14:43:55.086Z,27.04
2022-09-06T14:46:22.486Z,28.99
2022-09-06T14:48:56.337Z,30.40
2022-09-06T14:51:24.146Z,31.71
2022-09-06T14:53:52.458Z,32.65
2022-09-06T14:56:19.940Z,33.52
2022-09-06T14:58:46.777Z,34.18
2022-09-06T15:01:21.078Z,34.84
2022-09-06T15:03:51.223Z,35.36
2022-09-06T15:06:21.269Z,35.11
2022-09-06T15:08:48.363Z,34.85
2022-09-06T15:11:26.735Z,34.35
2022-09-06T15:13:53.503Z,34.32
2022-09-06T15:16:21.796Z,32.01
2022-09-06T15:18:48.627Z,32.17
2022-09-06T15:21:16.301Z,31.22
2022-09-06T15:23:44.288Z,31.10
2022-09-06T15:26:15.036Z,31.48
2022-09-06T15:28:45.682Z,32.33
2022-09-06T15:31:16.445Z,32.74
2022-09-06T15:33:43.559Z,33.37
2022-09-06T15:36:11.636Z,34.11
2022-09-06T15:38:43.267Z,34.57
2022-09-06T15:41:14.383Z,35.03
2022-09-06T15:43:47.697Z,35.05
2022-09-06T15:46:15.143Z,34.50
2022-09-06T15:48:46.400Z,34.02
2022-09-06T15:51:18.490Z,33.26
2022-09-06T15:53:47.306Z,32.12
2022-09-06T15:56:15.217Z,31.40
2022-09-06T15:58:48.309Z,31.78
2022-09-06T16:01:17.031Z,32.11
2022-09-06T16:03:45.802Z,32.31
2022-09-06T16:08:55.977Z,31.69
2022-09-06T16:11:22.800Z,33.11
2022-09-06T16:13:50.113Z,33.53
2022-09-06T16:16:19.141Z,34.46
2022-09-06T16:18:48.881Z,35.40
2022-09-06T16:21:21.088Z,36.11
2022-09-06T16:24:02.070Z,36.56
2022-09-06T16:26:36.204Z,37.47
2022-09-06T16:29:04.127Z,38.08
2022-09-06T16:31:36.485Z,38.74
2022-09-06T16:34:07.533Z,39.87
2022-09-06T16:36:43.722Z,40.62
2022-09-06T16:39:10.756Z,41.17
2022-09-06T16:41:41.988Z,41.93
2022-09-06T16:44:13.870Z,42.57
2022-09-06T16:46:41.225Z,43.03
2022-09-06T16:49:08.383Z,43.96
2022-09-06T16:51:35.180Z,44.47
2022-09-06T16:54:02.103Z,45.11
2022-09-06T16:56:32.800Z,45.91
2022-09-06T16:59:01.148Z,46.13
2022-09-06T17:01:29.388Z,46.53
2022-09-06T17:04:00.851Z,47.41
2022-09-06T17:06:29.773Z,48.64
2022-09-06T17:09:00.213Z,48.31
2022-09-06T17:11:27.854Z,50.00
2022-09-06T17:13:55.822Z,50.38
2022-09-06T17:16:45.623Z,50.52
2022-09-06T17:19:13.402Z,51.65
2022-09-06T17:21:40.299Z,52.79
2022-09-06T17:24:11.198Z,52.80
2022-09-06T17:26:39.180Z,53.26
2022-09-06T17:29:06.620Z,54.37
2022-09-06T17:31:53.777Z,54.97
2022-09-06T17:34:20.780Z,55.39
2022-09-06T17:36:47.527Z,57.21
2022-09-06T17:39:18.446Z,57.08
2022-09-06T17:41:46.347Z,57.27
2022-09-06T17:44:17.869Z,61.12
2022-09-06T17:47:02.629Z,62.27
2022-09-06T17:49:32.868Z,60.88
2022-09-06T17:51:59.691Z,60.14
2022-09-06T17:54:27.144Z,63.24
2022-09-06T17:56:54.265Z,66.74
2022-09-06T17:59:31.665Z,64.79
2022-09-06T18:02:24.946Z,65.22
2022-09-06T18:04:52.940Z,63.78
2022-09-06T18:07:20.196Z,64.53
2022-09-06T18:09:48.728Z,63.18
2022-09-06T18:12:23.470Z,64.51
2022-09-06T18:14:51.858Z,64.54
2022-09-06T18:17:26.447Z,64.13
2022-09-06T18:19:59.611Z,65.52
2022-09-06T18:22:38.105Z,65.87
2022-09-06T18:25:19.631Z,67.51
2022-09-06T18:27:48.453Z,69.28
2022-09-06T18:30:18.779Z,74.42
2022-09-06T18:32:48.016Z,74.30
2022-09-06T18:35:18.907Z,73.19
2022-09-06T18:37:46.979Z,71.75
2022-09-06T18:40:16.125Z,73.17
2022-09-06T18:42:46.181Z,72.88
2022-09-06T18:45:16.514Z,73.76
2022-09-06T18:47:47.783Z,78.24
2022-09-06T18:50:17.766Z,78.67
2022-09-06T18:52:46.478Z,78.72
2022-09-06T18:55:23.705Z,75.82
2022-09-06T18:57:56.568Z,76.71
2022-09-06T19:00:26.158Z,79.93
2022-09-06T19:03:03.359Z,78.22
2022-09-06T19:05:36.755Z,80.47
2022-09-06T19:08:18.641Z,84.24
2022-09-06T19:10:45.767Z,84.36
2022-09-06T19:13:13.652Z,89.73
2022-09-06T19:15:42.288Z,92.26
2022-09-06T19:18:09.197Z,93.98
2022-09-06T19:20:36.681Z,98.68
2022-09-06T19:23:03.645Z,91.09
2022-09-06T19:25:33.173Z,90.04
2022-09-06T19:28:00.240Z,91.49
2022-09-06T19:30:27.051Z,96.24
2022-09-06T19:32:59.582Z,92.14
2022-09-06T19:35:27.693Z,93.08
2022-09-06T19:37:54.917Z,99.68
2022-09-06T19:40:24.278Z,99.83
2022-09-06T19:42:51.746Z,98.80
2022-09-06T19:45:24.479Z,98.87
2022-09-06T19:47:51.482Z,100.00
2022-09-06T19:50:18.600Z,100.00
2022-09-06T19:52:47.124Z,100.00
2022-09-06T19:55:16.581Z,100.00
2022-09-06T19:57:43.684Z,100.00
2022-09-06T20:00:11.168Z,100.00
2022-09-06T20:02:39.914Z,100.00
2022-09-06T20:05:07.412Z,100.00
2022-09-06T20:07:41.986Z,100.00
2022-09-06T20:10:12.281Z,100.00
2022-09-06T20:12:39.791Z,100.00
2022-09-06T20:15:09.069Z,100.00
2022-09-06T20:17:39.210Z,100.00
2022-09-06T20:20:13.438Z,100.00
2022-09-06T20:22:53.373Z,100.00
2022-09-06T20:25:20.119Z,100.00
2022-09-06T20:27:47.096Z,100.00
2022-09-06T20:30:18.630Z,100.00
2022-09-06T20:32:45.568Z,100.00
2022-09-06T20:35:13.613Z,100.00
2022-09-06T20:37:55.070Z,100.00
2022-09-06T20:40:22.142Z,100.00
2022-09-06T20:42:49.218Z,100.00
2022-09-06T20:45:29.145Z,100.00
2022-09-06T20:48:05.225Z,100.00
2022-09-06T20:50:32.267Z,100.00
2022-09-06T20:52:59.985Z,100.00
2022-09-06T20:55:27.143Z,100.00
2022-09-06T20:57:56.610Z,100.00
2022-09-06T21:00:24.393Z,100.00
2022-09-06T21:02:53.665Z,100.00
2022-09-06T21:05:22.185Z,100.00
2022-09-06T21:07:49.175Z,100.00
2022-09-06T21:10:17.652Z,100.00
2022-09-06T21:12:45.576Z,100.00
2022-09-06T21:15:12.446Z,100.00
2022-09-06T21:17:44.326Z,100.00
2022-09-06T21:20:12.960Z,100.00
2022-09-06T21:22:41.311Z,100.00
2022-09-06T21:25:08.678Z,100.00
2022-09-06T21:27:37.382Z,100.00
2022-09-06T21:30:04.454Z,100.00
2022-09-06T21:32:33.859Z,100.00
2022-09-06T21:35:03.119Z,100.00
2022-09-06T21:37:32.818Z,100.00
2022-09-06T21:40:01.514Z,100.00
2022-09-06T21:42:29.572Z,100.00
2022-09-06T21:44:56.447Z,100.00
2022-09-06T21:47:24.725Z,100.00
2022-09-06T21:49:58.731Z,100.00
2022-09-06T21:52:32.204Z,100.00
2022-09-06T21:55:01.932Z,100.00
2022-09-06T21:57:29.084Z,100.00
2022-09-06T21:59:57.515Z,100.00
2022-09-06T22:02:28.911Z,100.00
2022-09-06T22:04:56.127Z,100.00
2022-09-06T22:07:30.673Z,100.00
2022-09-06T22:09:57.620Z,100.00
2022-09-06T22:12:27.219Z,100.00
2022-09-06T22:14:54.387Z,100.00
2022-09-06T22:17:22.563Z,100.00
2022-09-06T22:19:50.133Z,100.00
2022-09-06T22:22:19.270Z,100.00
2022-09-06T22:24:46.203Z,100.00
2022-09-06T22:27:13.075Z,100.00
2022-09-06T22:29:40.129Z,100.00
2022-09-06T22:32:10.776Z,100.00
2022-09-06T22:34:40.069Z,100.00
2022-09-06T22:37:07.287Z,100.00
2022-09-06T22:39:35.185Z,100.00
2022-09-06T22:42:02.325Z,100.00
2022-09-06T22:44:32.253Z,100.00
2022-09-06T22:46:59.077Z,100.00
2022-09-06T22:49:28.963Z,100.00
2022-09-06T22:51:55.879Z,100.00
2022-09-06T22:54:26.990Z,100.00
2022-09-06T22:56:53.794Z,100.00
2022-09-06T22:59:20.952Z,100.00
2022-09-06T23:01:48.996Z,100.00
2022-09-06T23:04:18.286Z,100.00
2022-09-06T23:06:45.869Z,100.00
2022-09-06T23:09:16.933Z,100.00
2022-09-06T23:11:44.008Z,100.00
2022-09-06T23:14:13.277Z,100.00
2022-09-06T23:16:44.052Z,100.00
2022-09-06T23:19:12.249Z,100.00
2022-09-06T23:21:39.028Z,100.00
2022-09-06T23:24:09.971Z,100.00
2022-09-06T23:26:37.006Z,100.00
2022-09-06T23:29:04.218Z,100.00
2022-09-06T23:31:34.883Z,100.00
2022-09-06T23:34:02.224Z,100.00
2022-09-06T23:36:29.745Z,100.00
2022-09-06T23:39:20.085Z,100.00
2022-09-06T23:41:46.940Z,100.00
2022-09-06T23:44:22.213Z,100.00
2022-09-06T23:46:50.593Z,100.00
2022-09-06T23:49:17.509Z,100.00
2022-09-06T23:51:56.197Z,100.00
2022-09-06T23:54:23.699Z,100.00
2022-09-06T23:56:50.742Z,100.00
2022-09-06T23:59:17.863Z,100.00
